createdAt,value
2023-01-29T00:01:58.943Z,17.40
2023-01-29T00:04:25.697Z,17.63
2023-01-29T00:06:54.447Z,17.47
2023-01-29T00:09:21.208Z,17.70
2023-01-29T00:11:48.171Z,17.10
2023-01-29T00:14:15.011Z,18.43
2023-01-29T00:16:41.780Z,17.17
2023-01-29T00:19:08.511Z,17.07
2023-01-29T00:21:35.571Z,16.40
2023-01-29T00:24:02.473Z,16.77
2023-01-29T00:26:29.323Z,18.10
2023-01-29T00:28:57.492Z,18.10
2023-01-29T00:31:26.134Z,17.33
2023-01-29T00:33:53.061Z,18.07
2023-01-29T00:36:21.652Z,16.63
2023-01-29T00:38:58.809Z,19.27
2023-01-29T00:41:49.365Z,17.77
2023-01-29T00:44:34.742Z,17.63
2023-01-29T00:47:02.305Z,17.97
2023-01-29T00:49:30.403Z,17.60
2023-01-29T00:52:15.713Z,18.23
2023-01-29T00:54:42.338Z,18.07
2023-01-29T00:57:08.995Z,17.70
2023-01-29T00:59:35.693Z,18.97
2023-01-29T01:02:20.993Z,19.13
2023-01-29T01:04:47.784Z,19.33
2023-01-29T01:07:14.403Z,18.83
2023-01-29T01:09:59.677Z,19.20
2023-01-29T01:12:26.590Z,18.83
2023-01-29T01:14:53.235Z,17.80
2023-01-29T01:17:20.369Z,18.17
2023-01-29T01:19:47.213Z,18.53
2023-01-29T01:22:13.943Z,18.97
2023-01-29T01:24:40.764Z,18.13
2023-01-29T01:27:07.546Z,17.87
2023-01-29T01:29:34.252Z,17.40
2023-01-29T01:32:01.016Z,18.03
2023-01-29T01:34:27.787Z,17.20
2023-01-29T01:36:56.425Z,17.37
2023-01-29T01:39:24.284Z,17.60
2023-01-29T01:41:55.305Z,17.60
2023-01-29T01:45:13.246Z,17.60
2023-01-29T01:48:02.524Z,17.37
2023-01-29T01:50:50.623Z,19.03
2023-01-29T01:53:26.241Z,17.47
2023-01-29T01:56:00.262Z,17.13
2023-01-29T01:58:33.926Z,17.47
2023-01-29T02:01:01.319Z,17.37
2023-01-29T02:03:49.969Z,17.33
2023-01-29T02:06:35.223Z,15.93
2023-01-29T02:09:35.510Z,17.33
2023-01-29T02:12:12.131Z,17.07
2023-01-29T02:14:40.541Z,16.73
2023-01-29T02:17:10.192Z,16.37
2023-01-29T02:19:47.287Z,16.47
2023-01-29T02:22:43.472Z,16.90
2023-01-29T02:25:19.142Z,15.10
2023-01-29T02:27:48.838Z,16.70
2023-01-29T02:30:29.431Z,15.77
2023-01-29T02:33:02.203Z,16.77
2023-01-29T02:35:34.698Z,16.53
2023-01-29T02:38:07.412Z,16.47
2023-01-29T02:40:52.653Z,16.40
2023-01-29T02:43:30.078Z,17.40
2023-01-29T02:46:07.131Z,16.97
2023-01-29T02:48:49.819Z,17.87
2023-01-29T02:51:26.741Z,17.00
2023-01-29T02:54:06.374Z,18.17
2023-01-29T02:56:58.720Z,16.50
2023-01-29T02:59:54.925Z,15.70
2023-01-29T03:02:31.399Z,16.70
2023-01-29T03:05:01.798Z,16.53
2023-01-29T03:07:52.119Z,16.20
2023-01-29T03:10:31.178Z,17.03
2023-01-29T03:13:10.565Z,16.83
2023-01-29T03:15:47.217Z,17.03
2023-01-29T03:18:27.895Z,17.07
2023-01-29T03:21:04.140Z,16.87
2023-01-29T03:23:53.873Z,17.73
2023-01-29T03:26:41.568Z,16.20
2023-01-29T03:29:28.361Z,16.40
2023-01-29T03:32:06.728Z,15.60
2023-01-29T03:34:57.485Z,16.47
2023-01-29T03:37:27.909Z,16.93
2023-01-29T03:39:55.582Z,17.37
2023-01-29T03:42:30.404Z,16.33
2023-01-29T03:45:09.371Z,17.17
2023-01-29T03:47:50.331Z,17.93
2023-01-29T03:50:23.081Z,17.30
2023-01-29T03:53:14.320Z,18.47
2023-01-29T03:55:58.401Z,18.90
2023-01-29T03:58:37.511Z,18.27
2023-01-29T04:01:22.386Z,18.37
2023-01-29T04:03:59.243Z,17.33
2023-01-29T04:06:30.182Z,17.43
2023-01-29T04:09:03.451Z,18.47
2023-01-29T04:11:33.355Z,18.03
2023-01-29T04:14:20.110Z,18.90
2023-01-29T04:17:02.544Z,18.93
2023-01-29T04:19:44.976Z,19.63
2023-01-29T04:22:34.676Z,20.03
2023-01-29T04:25:28.988Z,19.23
2023-01-29T04:28:52.214Z,20.37
2023-01-29T04:31:54.877Z,20.37
2023-01-29T04:34:51.901Z,21.40
2023-01-29T04:37:37.711Z,21.30
2023-01-29T04:40:34.888Z,20.23
2023-01-29T04:43:07.787Z,20.13
2023-01-29T04:45:48.262Z,21.93
2023-01-29T04:48:20.944Z,21.50
2023-01-29T04:51:00.986Z,21.80
2023-01-29T04:53:39.744Z,22.00
2023-01-29T04:56:37.529Z,21.93
2023-01-29T04:59:15.217Z,22.03
2023-01-29T05:01:42.531Z,23.50
2023-01-29T05:04:14.245Z,23.23
2023-01-29T05:06:42.744Z,22.80
2023-01-29T05:09:10.207Z,23.67
2023-01-29T05:11:37.740Z,23.33
2023-01-29T05:14:08.824Z,22.70
2023-01-29T05:16:44.387Z,23.33
2023-01-29T05:19:16.441Z,23.97
2023-01-29T05:21:46.802Z,24.33
2023-01-29T05:24:23.928Z,23.87
2023-01-29T05:27:11.400Z,24.50
2023-01-29T05:29:42.975Z,24.87
2023-01-29T05:32:09.626Z,23.17
2023-01-29T05:34:36.423Z,23.50
2023-01-29T05:37:03.161Z,24.80
2023-01-29T05:39:30.053Z,25.10
2023-01-29T05:41:56.748Z,24.50
2023-01-29T05:44:23.449Z,25.20
2023-01-29T05:46:51.208Z,24.17
2023-01-29T05:49:20.514Z,24.47
2023-01-29T05:51:47.313Z,25.67
2023-01-29T05:54:14.219Z,25.33
2023-01-29T05:56:41.053Z,25.00
2023-01-29T05:59:07.984Z,24.80
2023-01-29T06:01:34.709Z,24.73
2023-01-29T06:04:01.840Z,22.73
2023-01-29T06:06:29.126Z,24.00
2023-01-29T06:08:56.152Z,23.47
2023-01-29T06:11:22.923Z,23.43
2023-01-29T06:13:49.620Z,24.50
2023-01-29T06:16:16.409Z,25.10
2023-01-29T06:18:43.336Z,25.00
2023-01-29T06:21:12.996Z,23.67
2023-01-29T06:23:40.576Z,25.27
2023-01-29T06:26:11.475Z,24.73
2023-01-29T06:28:38.757Z,24.83
2023-01-29T06:31:37.327Z,24.53
2023-01-29T06:33:53.787Z,25.57
2023-01-29T06:36:20.447Z,25.20
2023-01-29T06:38:47.433Z,26.43
2023-01-29T06:41:18.107Z,27.10
2023-01-29T06:43:45.745Z,25.47
2023-01-29T06:46:12.741Z,26.43
2023-01-29T06:48:39.776Z,27.03
2023-01-29T06:51:08.582Z,27.50
2023-01-29T06:53:36.887Z,26.73
2023-01-29T06:56:04.411Z,29.70
2023-01-29T06:58:31.210Z,28.70
2023-01-29T07:01:09.871Z,27.43
2023-01-29T07:03:36.958Z,27.57
2023-01-29T07:06:05.095Z,28.87
2023-01-29T07:08:31.863Z,28.00
2023-01-29T07:11:01.069Z,28.83
2023-01-29T07:13:27.867Z,29.50
2023-01-29T07:15:54.980Z,29.27
2023-01-29T07:18:21.971Z,29.07
2023-01-29T07:20:48.655Z,30.50
2023-01-29T07:23:15.417Z,30.17
2023-01-29T07:25:42.162Z,31.07
2023-01-29T07:28:08.940Z,30.13
2023-01-29T07:30:36.331Z,30.77
2023-01-29T07:33:08.332Z,29.33
2023-01-29T07:35:40.075Z,30.07
2023-01-29T07:38:07.709Z,30.77
2023-01-29T07:40:34.703Z,31.53
2023-01-29T07:43:03.566Z,30.43
2023-01-29T07:45:31.256Z,32.60
2023-01-29T07:47:57.979Z,32.00
2023-01-29T07:50:26.503Z,31.27
2023-01-29T07:52:56.657Z,32.53
2023-01-29T07:55:23.985Z,29.80
2023-01-29T07:58:02.566Z,31.43
2023-01-29T08:00:30.578Z,32.23
2023-01-29T08:03:05.184Z,30.67
2023-01-29T08:05:31.954Z,31.13
2023-01-29T08:08:06.450Z,29.93
2023-01-29T08:10:35.409Z,31.37
2023-01-29T08:13:02.929Z,32.37
2023-01-29T08:15:30.482Z,32.47
2023-01-29T08:17:58.479Z,30.40
2023-01-29T08:20:25.804Z,32.63
2023-01-29T08:23:03.677Z,30.60
2023-01-29T08:25:31.059Z,28.63
2023-01-29T08:27:58.979Z,29.13
2023-01-29T08:30:28.192Z,29.40
2023-01-29T08:32:54.947Z,28.23
2023-01-29T08:35:22.572Z,30.40
2023-01-29T08:38:02.009Z,29.77
2023-01-29T08:40:33.836Z,27.73
2023-01-29T08:43:02.711Z,30.33
2023-01-29T08:45:32.095Z,28.30
2023-01-29T08:47:58.832Z,26.67
2023-01-29T08:50:25.680Z,27.67
2023-01-29T08:52:58.020Z,28.90
2023-01-29T08:55:25.152Z,28.23
2023-01-29T08:57:51.921Z,28.27
2023-01-29T09:00:19.141Z,29.27
2023-01-29T09:02:45.915Z,27.80
2023-01-29T09:05:13.331Z,28.27
2023-01-29T09:07:40.096Z,27.93
2023-01-29T09:10:08.614Z,29.63
2023-01-29T09:12:35.494Z,29.20
2023-01-29T09:15:02.176Z,26.13
2023-01-29T09:17:29.003Z,27.97
2023-01-29T09:19:55.751Z,25.97
2023-01-29T09:22:22.487Z,25.43
2023-01-29T09:24:49.211Z,26.97
2023-01-29T09:27:15.851Z,26.77
2023-01-29T09:29:44.140Z,26.50
2023-01-29T09:32:11.612Z,25.47
2023-01-29T09:34:38.385Z,26.70
2023-01-29T09:37:05.069Z,26.70
2023-01-29T09:39:32.057Z,27.70
2023-01-29T09:42:26.639Z,25.73
2023-01-29T09:45:04.865Z,25.47
2023-01-29T09:47:35.775Z,26.33
2023-01-29T09:50:13.336Z,26.53
2023-01-29T09:52:50.266Z,28.50
2023-01-29T09:55:51.536Z,27.13
2023-01-29T09:58:21.145Z,25.90
2023-01-29T10:01:14.100Z,26.57
2023-01-29T10:04:02.948Z,27.10
2023-01-29T10:07:01.732Z,27.77
2023-01-29T10:09:37.267Z,27.53
2023-01-29T10:12:19.663Z,26.53
2023-01-29T10:15:00.568Z,27.37
2023-01-29T10:17:52.243Z,25.83
2023-01-29T10:20:39.728Z,25.50
2023-01-29T10:23:34.685Z,26.77
2023-01-29T10:26:02.204Z,26.57
2023-01-29T10:28:37.215Z,28.33
2023-01-29T10:31:25.288Z,27.07
2023-01-29T10:34:02.585Z,27.10
2023-01-29T10:36:49.333Z,28.23
2023-01-29T10:39:25.839Z,26.47
2023-01-29T10:42:19.797Z,28.40
2023-01-29T10:45:26.842Z,25.20
2023-01-29T10:48:06.292Z,25.83
2023-01-29T10:50:51.542Z,25.93
2023-01-29T10:53:52.103Z,25.80
2023-01-29T10:56:23.367Z,27.37
2023-01-29T10:59:38.490Z,28.87
2023-01-29T11:02:16.481Z,26.27
2023-01-29T11:04:43.327Z,28.17
2023-01-29T11:07:10.731Z,24.93
2023-01-29T11:10:14.247Z,27.70
2023-01-29T11:12:44.976Z,25.90
2023-01-29T11:15:31.141Z,26.23
2023-01-29T11:18:07.069Z,25.67
2023-01-29T11:20:34.521Z,24.73
2023-01-29T11:23:01.276Z,25.97
2023-01-29T11:25:29.932Z,26.10
2023-01-29T11:28:00.982Z,24.53
2023-01-29T11:30:34.123Z,25.77
2023-01-29T11:33:07.450Z,26.10
2023-01-29T11:35:35.471Z,26.90
2023-01-29T11:38:17.053Z,25.67
2023-01-29T11:40:44.706Z,26.80
2023-01-29T11:43:18.417Z,25.77
2023-01-29T11:45:45.288Z,24.37
2023-01-29T11:48:16.859Z,24.97
2023-01-29T11:50:50.845Z,25.93
2023-01-29T11:53:25.271Z,25.57
2023-01-29T11:55:52.898Z,26.47
2023-01-29T11:58:32.972Z,24.83
2023-01-29T12:01:00.948Z,25.77
2023-01-29T12:03:31.134Z,26.07
2023-01-29T12:06:23.654Z,25.53
2023-01-29T12:08:56.906Z,26.00
2023-01-29T12:11:33.509Z,25.17
2023-01-29T12:14:05.823Z,24.87
2023-01-29T12:16:45.536Z,25.77
2023-01-29T12:19:17.575Z,24.13
2023-01-29T12:21:47.506Z,22.93
2023-01-29T12:24:43.640Z,25.57
2023-01-29T12:27:17.408Z,24.07
2023-01-29T12:29:57.055Z,23.80
2023-01-29T12:32:38.678Z,22.90
2023-01-29T12:35:26.352Z,23.07
2023-01-29T12:38:18.013Z,22.40
2023-01-29T12:40:50.568Z,22.37
2023-01-29T12:43:20.585Z,23.90
2023-01-29T12:45:52.960Z,20.97
2023-01-29T12:48:31.311Z,22.63
2023-01-29T12:51:06.295Z,20.60
2023-01-29T12:53:43.783Z,20.50
2023-01-29T12:56:23.161Z,20.73
2023-01-29T12:58:52.972Z,20.40
2023-01-29T13:01:48.795Z,22.57
2023-01-29T13:04:37.132Z,20.07
2023-01-29T13:07:31.371Z,21.33
2023-01-29T13:10:07.641Z,21.10
2023-01-29T13:12:35.193Z,22.03
2023-01-29T13:15:29.306Z,20.83
2023-01-29T13:18:21.129Z,20.40
2023-01-29T13:20:50.711Z,21.77
2023-01-29T13:23:23.322Z,19.00
2023-01-29T13:25:54.314Z,19.97
2023-01-29T13:28:24.170Z,21.97
2023-01-29T13:31:29.020Z,20.87
2023-01-29T13:34:02.212Z,20.47
2023-01-29T13:36:30.841Z,20.73
2023-01-29T13:39:07.704Z,21.30
2023-01-29T13:41:44.088Z,22.17
2023-01-29T13:44:39.553Z,21.03
2023-01-29T13:47:10.522Z,22.43
2023-01-29T13:49:52.627Z,22.80
2023-01-29T13:52:44.693Z,21.73
2023-01-29T13:55:14.453Z,22.73
2023-01-29T13:57:44.107Z,22.93
2023-01-29T14:00:24.359Z,22.13
2023-01-29T14:02:56.999Z,22.60
2023-01-29T14:05:29.590Z,21.63
2023-01-29T14:08:15.163Z,22.07
2023-01-29T14:10:43.706Z,22.83
2023-01-29T14:13:19.240Z,22.73
2023-01-29T14:15:58.506Z,21.60
2023-01-29T14:18:30.684Z,22.87
2023-01-29T14:21:02.796Z,22.93
2023-01-29T14:23:29.516Z,22.00
2023-01-29T14:25:57.546Z,23.43
2023-01-29T14:28:29.081Z,21.93
2023-01-29T14:30:56.452Z,22.37
2023-01-29T14:33:38.372Z,23.47
2023-01-29T14:36:11.296Z,22.07
2023-01-29T14:38:39.928Z,23.37
2023-01-29T14:41:15.971Z,22.17
2023-01-29T14:43:42.708Z,20.60
2023-01-29T14:46:34.412Z,21.97
2023-01-29T14:49:01.389Z,22.03
2023-01-29T14:51:34.812Z,23.00
2023-01-29T14:54:02.795Z,21.40
2023-01-29T14:56:35.525Z,21.87
2023-01-29T14:59:17.906Z,21.03
2023-01-29T15:01:53.640Z,21.03
2023-01-29T15:04:41.815Z,21.20
2023-01-29T15:07:11.508Z,22.23
2023-01-29T15:09:49.773Z,22.73
2023-01-29T15:12:37.149Z,22.37
2023-01-29T15:15:39.479Z,21.97
2023-01-29T15:18:09.114Z,22.20
2023-01-29T15:20:38.586Z,23.33
2023-01-29T15:23:25.218Z,21.97
2023-01-29T15:25:55.284Z,22.67
2023-01-29T15:28:23.191Z,21.90
2023-01-29T15:31:01.734Z,24.57
2023-01-29T15:33:29.007Z,22.97
2023-01-29T15:36:08.930Z,22.23
2023-01-29T15:38:35.925Z,23.53
2023-01-29T15:41:16.419Z,22.77
2023-01-29T15:43:49.486Z,24.17
2023-01-29T15:46:28.085Z,23.30
2023-01-29T15:49:00.152Z,23.07
2023-01-29T15:51:28.915Z,23.60
2023-01-29T15:54:01.252Z,24.87
2023-01-29T15:56:54.587Z,24.13
2023-01-29T15:59:29.882Z,25.17
2023-01-29T16:01:56.987Z,23.37
2023-01-29T16:04:31.020Z,23.77
2023-01-29T16:07:00.609Z,25.23
2023-01-29T16:09:28.961Z,24.83
2023-01-29T16:11:58.855Z,25.03
2023-01-29T16:14:26.865Z,25.43
2023-01-29T16:16:54.586Z,25.53
2023-01-29T16:19:24.448Z,26.53
2023-01-29T16:22:06.183Z,25.97
2023-01-29T16:24:36.995Z,25.03
2023-01-29T16:27:12.526Z,27.00
2023-01-29T16:29:39.891Z,26.10
2023-01-29T16:32:06.990Z,25.47
2023-01-29T16:34:39.883Z,26.50
2023-01-29T16:37:21.164Z,23.93
2023-01-29T16:39:50.703Z,26.43
2023-01-29T16:42:22.310Z,26.13
2023-01-29T16:45:04.038Z,25.97
2023-01-29T16:47:41.483Z,27.63
2023-01-29T16:50:27.059Z,25.20
2023-01-29T16:53:00.510Z,26.70
2023-01-29T16:55:43.634Z,27.13
2023-01-29T16:58:17.241Z,24.50
2023-01-29T17:01:08.855Z,25.97
2023-01-29T17:03:37.373Z,25.23
2023-01-29T17:06:21.410Z,25.93
2023-01-29T17:08:48.488Z,25.57
2023-01-29T17:11:45.053Z,27.20
2023-01-29T17:14:18.854Z,26.00
2023-01-29T17:16:51.341Z,25.27
2023-01-29T17:19:20.818Z,27.93
2023-01-29T17:21:47.697Z,25.70
2023-01-29T17:24:14.534Z,26.27
2023-01-29T17:26:41.997Z,25.97
2023-01-29T17:29:20.402Z,26.60
2023-01-29T17:31:47.513Z,26.03
2023-01-29T17:34:16.712Z,27.10
2023-01-29T17:36:44.304Z,27.10
2023-01-29T17:39:19.162Z,26.67
2023-01-29T17:41:50.033Z,25.80
2023-01-29T17:44:17.014Z,27.87
2023-01-29T17:46:43.862Z,27.67
2023-01-29T17:49:30.248Z,28.07
2023-01-29T17:51:57.814Z,26.73
2023-01-29T17:54:26.105Z,26.83
2023-01-29T17:56:55.097Z,28.03
2023-01-29T17:59:30.122Z,27.67
2023-01-29T18:02:01.511Z,28.93
2023-01-29T18:04:28.766Z,27.33
2023-01-29T18:06:59.769Z,29.23
2023-01-29T18:09:28.534Z,31.10
2023-01-29T18:14:49.499Z,30.40
2023-01-29T18:17:22.217Z,30.20
2023-01-29T18:19:49.425Z,30.63
2023-01-29T18:22:16.306Z,30.80
2023-01-29T18:24:43.039Z,31.23
2023-01-29T18:27:11.269Z,31.40
2023-01-29T18:29:38.207Z,30.20
2023-01-29T18:32:06.364Z,31.97
2023-01-29T18:34:33.226Z,29.23
2023-01-29T18:37:00.319Z,28.73
2023-01-29T18:39:27.028Z,32.53
2023-01-29T18:41:53.769Z,30.03
2023-01-29T18:44:20.454Z,28.97
2023-01-29T18:46:47.287Z,28.67
2023-01-29T18:49:17.416Z,30.33
2023-01-29T18:51:44.756Z,31.73
2023-01-29T18:54:14.967Z,29.47
2023-01-29T18:57:13.612Z,29.43
2023-01-29T18:59:29.895Z,29.20
2023-01-29T19:01:57.099Z,30.17
2023-01-29T19:04:24.003Z,29.87
2023-01-29T19:06:50.885Z,27.97
2023-01-29T19:09:18.545Z,29.00
2023-01-29T19:11:45.426Z,27.40
2023-01-29T19:14:12.719Z,27.97
2023-01-29T19:16:39.548Z,27.57
2023-01-29T19:19:06.849Z,27.03
2023-01-29T19:21:36.828Z,28.07
2023-01-29T19:24:03.803Z,28.50
2023-01-29T19:26:34.537Z,28.27
2023-01-29T19:29:03.038Z,28.37
2023-01-29T19:31:32.006Z,30.37
2023-01-29T19:33:59.074Z,30.47
2023-01-29T19:36:25.862Z,28.33
2023-01-29T19:38:53.422Z,28.70
2023-01-29T19:41:23.340Z,28.63
2023-01-29T19:43:50.772Z,29.00
2023-01-29T19:46:18.258Z,28.10
2023-01-29T19:48:46.660Z,27.57
2023-01-29T19:51:13.751Z,28.13
2023-01-29T19:53:45.871Z,29.30
2023-01-29T19:56:20.195Z,29.30
2023-01-29T19:58:48.833Z,28.13
2023-01-29T20:01:18.880Z,28.47
2023-01-29T20:03:48.105Z,26.87
2023-01-29T20:06:17.877Z,28.40
2023-01-29T20:08:47.407Z,26.43
2023-01-29T20:11:15.538Z,28.30
2023-01-29T20:13:42.686Z,29.50
2023-01-29T20:16:09.703Z,27.23
2023-01-29T20:18:36.416Z,27.10
2023-01-29T20:21:09.437Z,27.80
2023-01-29T20:23:38.623Z,29.77
2023-01-29T20:26:13.559Z,27.63
2023-01-29T20:28:40.845Z,28.83
2023-01-29T20:31:08.898Z,26.27
2023-01-29T20:33:38.264Z,27.00
2023-01-29T20:36:08.224Z,27.57
2023-01-29T20:38:35.179Z,26.27
2023-01-29T20:41:05.814Z,26.27
2023-01-29T20:43:33.111Z,29.27
2023-01-29T20:46:01.226Z,27.60
2023-01-29T20:48:29.428Z,27.70
2023-01-29T20:50:57.304Z,27.63
2023-01-29T20:53:24.250Z,27.57
2023-01-29T20:55:51.031Z,27.37
2023-01-29T20:58:20.310Z,27.40
2023-01-29T21:00:47.711Z,27.33
2023-01-29T21:03:16.042Z,29.50
2023-01-29T21:05:43.103Z,26.80
2023-01-29T21:08:12.083Z,27.57
2023-01-29T21:10:39.040Z,27.80
2023-01-29T21:13:06.512Z,27.37
2023-01-29T21:15:33.208Z,27.90
2023-01-29T21:18:04.298Z,27.73
2023-01-29T21:20:32.875Z,27.67
2023-01-29T21:22:59.673Z,26.77
2023-01-29T21:25:26.432Z,28.73
2023-01-29T21:27:53.080Z,27.40
2023-01-29T21:30:20.320Z,28.80
2023-01-29T21:32:47.282Z,30.30
2023-01-29T21:35:15.097Z,29.60
2023-01-29T21:37:42.004Z,29.33
2023-01-29T21:40:10.120Z,27.53
2023-01-29T21:42:55.472Z,29.40
2023-01-29T21:45:22.149Z,28.67
2023-01-29T21:47:49.571Z,30.43
2023-01-29T21:50:16.872Z,29.83
2023-01-29T21:52:43.839Z,31.70
2023-01-29T21:55:10.468Z,26.77
2023-01-29T21:57:37.272Z,29.23
2023-01-29T22:00:04.431Z,29.63
2023-01-29T22:02:32.199Z,30.10
2023-01-29T22:05:17.739Z,31.03
2023-01-29T22:07:45.872Z,30.93
2023-01-29T22:10:13.048Z,30.83
2023-01-29T22:12:40.094Z,30.60
2023-01-29T22:15:08.452Z,30.47
2023-01-29T22:17:35.561Z,29.80
2023-01-29T22:20:02.537Z,30.40
2023-01-29T22:22:29.249Z,30.40
2023-01-29T22:24:57.766Z,30.27
2023-01-29T22:27:24.681Z,30.93
2023-01-29T22:29:51.511Z,30.53
2023-01-29T22:32:18.478Z,31.10
2023-01-29T22:34:45.183Z,28.40
2023-01-29T22:37:11.880Z,30.43
2023-01-29T22:39:38.591Z,30.90
2023-01-29T22:42:05.348Z,30.93
2023-01-29T22:44:32.523Z,30.57
2023-01-29T22:46:59.844Z,29.07
2023-01-29T22:49:29.513Z,29.17
2023-01-29T22:52:11.228Z,28.90
2023-01-29T22:54:42.525Z,28.80
2023-01-29T22:57:14.188Z,29.40
2023-01-29T22:59:41.086Z,30.10
2023-01-29T23:02:08.665Z,27.63
2023-01-29T23:04:35.484Z,28.07
2023-01-29T23:07:02.309Z,27.97
2023-01-29T23:09:29.386Z,27.93
2023-01-29T23:11:56.054Z,27.67
2023-01-29T23:14:22.740Z,25.73
2023-01-29T23:16:49.425Z,28.07
2023-01-29T23:19:16.121Z,27.87
2023-01-29T23:21:42.804Z,29.83
2023-01-29T23:24:10.153Z,29.87
2023-01-29T23:26:55.265Z,27.23
2023-01-29T23:29:21.963Z,27.97
2023-01-29T23:31:48.700Z,28.37
2023-01-29T23:34:15.621Z,27.53
2023-01-29T23:36:43.139Z,27.67
2023-01-29T23:39:10.711Z,29.30
2023-01-29T23:41:37.532Z,28.23
2023-01-29T23:44:04.791Z,27.20
2023-01-29T23:46:31.975Z,28.67
2023-01-29T23:48:58.837Z,29.07
2023-01-29T23:51:25.866Z,29.30
2023-01-29T23:53:52.686Z,26.37
2023-01-29T23:56:19.591Z,28.13
2023-01-29T23:58:46.403Z,28.33
